Time;durP1;ratioP1;P1;durP2;ratioP2;P2;SDS_P1;SDS_P2;PMS_P1;PMS_P2;Temp;Humidity;BMP_temperature;BMP_pressure;BME280_temperature;BME280_humidity;BME280_pressure;Samples;Min_cycle;Max_cycle;Signal;HPM_P1;HPM_P2
2023/12/18 00:00:15;;;;;;;28.30;13.23;;;7.80;99.90;;;;;;4885677;29;20111;-79
2023/12/18 00:02:41;;;;;;;22.98;12.18;;;7.80;99.90;;;;;;4917635;29;20024;-79
2023/12/18 00:05:07;;;;;;;23.88;13.05;;;7.80;99.90;;;;;;4918026;29;20044;-79
2023/12/18 00:07:33;;;;;;;23.33;12.65;;;7.80;99.90;;;;;;4917618;29;20080;-79
2023/12/18 00:09:59;;;;;;;26.77;11.93;;;7.90;99.90;;;;;;4917880;29;20074;-79
2023/12/18 00:12:24;;;;;;;30.38;13.75;;;7.90;99.90;;;;;;4917380;29;20032;-79
2023/12/18 00:14:50;;;;;;;26.02;13.02;;;7.90;99.90;;;;;;4885205;29;20044;-79
2023/12/18 00:17:16;;;;;;;24.40;12.73;;;7.90;99.90;;;;;;4884786;29;20032;-79
2023/12/18 00:19:42;;;;;;;23.30;12.88;;;7.90;99.90;;;;;;4884843;29;20032;-79
2023/12/18 00:22:08;;;;;;;19.92;12.25;;;7.90;99.90;;;;;;4899757;29;20032;-79
2023/12/18 00:24:33;;;;;;;25.38;12.18;;;7.90;99.90;;;;;;4917510;29;20044;-80
2023/12/18 00:26:59;;;;;;;24.30;13.18;;;7.90;99.90;;;;;;4900745;29;20040;-79
2023/12/18 00:29:24;;;;;;;22.73;12.55;;;7.90;99.90;;;;;;4885195;29;20111;-79
2023/12/18 00:31:50;;;;;;;23.52;13.35;;;7.90;99.90;;;;;;4917460;29;20462;-79
2023/12/18 00:34:16;;;;;;;22.58;12.55;;;7.90;99.90;;;;;;4917486;29;20051;-79
2023/12/18 00:36:42;;;;;;;28.15;13.00;;;7.90;99.90;;;;;;4900467;29;20024;-79
2023/12/18 00:39:08;;;;;;;22.63;14.15;;;7.90;99.90;;;;;;4900281;29;20032;-79
2023/12/18 00:41:34;;;;;;;21.85;12.00;;;7.90;99.90;;;;;;4900737;29;20032;-78
2023/12/18 00:44:00;;;;;;;23.80;12.77;;;7.90;99.90;;;;;;4916942;29;20052;-79
2023/12/18 00:46:26;;;;;;;25.98;12.23;;;7.90;99.90;;;;;;4917195;29;20044;-78
2023/12/18 00:48:51;;;;;;;24.67;12.02;;;7.90;99.90;;;;;;4884379;29;20044;-77
2023/12/18 00:51:17;;;;;;;27.23;12.30;;;7.90;99.90;;;;;;4899810;29;20036;-78
2023/12/18 00:53:43;;;;;;;26.10;11.95;;;7.90;99.90;;;;;;4916762;29;20040;-78
2023/12/18 00:56:09;;;;;;;27.25;13.20;;;7.90;99.90;;;;;;4916925;29;20036;-78
2023/12/18 00:58:35;;;;;;;24.77;12.88;;;7.90;99.90;;;;;;4916629;29;20027;-78
2023/12/18 01:01:00;;;;;;;24.52;12.70;;;7.90;99.90;;;;;;4917088;29;20059;-78
2023/12/18 01:03:26;;;;;;;23.38;12.45;;;7.90;99.90;;;;;;4900184;29;20095;-78
2023/12/18 01:05:52;;;;;;;23.65;12.20;;;7.90;99.90;;;;;;4900246;29;20164;-78
2023/12/18 01:08:17;;;;;;;26.63;13.05;;;7.90;99.90;;;;;;4916607;29;20478;-79
2023/12/18 01:10:43;;;;;;;23.02;12.50;;;8.00;99.90;;;;;;4900228;29;20048;-78
2023/12/18 01:13:09;;;;;;;20.98;12.02;;;7.90;99.90;;;;;;4899982;29;20067;-79
2023/12/18 01:15:34;;;;;;;25.25;12.95;;;7.90;99.90;;;;;;4917081;29;20378;-78
2023/12/18 01:18:00;;;;;;;29.77;14.00;;;7.90;99.90;;;;;;4884301;29;20386;-78
2023/12/18 01:20:26;;;;;;;26.02;12.93;;;7.90;99.90;;;;;;4900209;29;20040;-79
2023/12/18 01:22:51;;;;;;;22.38;13.23;;;7.90;99.90;;;;;;4884382;29;20410;-78
2023/12/18 01:25:17;;;;;;;25.05;12.57;;;7.90;99.90;;;;;;4899767;29;20493;-79
2023/12/18 01:27:42;;;;;;;23.58;13.20;;;8.00;99.90;;;;;;4916535;29;20040;-79
2023/12/18 01:30:09;;;;;;;26.67;13.45;;;7.90;99.90;;;;;;4884327;29;20039;-77
2023/12/18 01:32:35;;;;;;;25.40;12.50;;;8.00;99.90;;;;;;4918473;29;20036;-79
2023/12/18 01:35:00;;;;;;;25.20;13.55;;;7.90;99.90;;;;;;4887907;29;20063;-79
2023/12/18 01:37:26;;;;;;;24.77;12.77;;;7.90;99.90;;;;;;4920618;29;20040;-79
2023/12/18 01:39:51;;;;;;;28.75;13.10;;;7.90;99.90;;;;;;4920226;29;20036;-79
2023/12/18 01:42:17;;;;;;;29.20;13.65;;;7.90;99.90;;;;;;4902992;29;20540;-79
2023/12/18 01:44:43;;;;;;;24.98;12.95;;;7.90;99.90;;;;;;4903401;29;20195;-79
2023/12/18 01:47:09;;;;;;;22.98;12.50;;;7.90;99.90;;;;;;4902822;29;20051;-79
2023/12/18 01:49:35;;;;;;;24.52;12.23;;;7.90;99.90;;;;;;4920136;29;20479;-79
2023/12/18 01:52:02;;;;;;;24.58;13.20;;;7.90;99.90;;;;;;4902838;29;20116;-78
2023/12/18 01:54:28;;;;;;;23.05;12.93;;;7.90;99.90;;;;;;4919905;29;20047;-79
2023/12/18 01:56:55;;;;;;;21.90;12.70;;;7.80;99.90;;;;;;4920236;29;20449;-79
2023/12/18 01:59:24;;;;;;;25.38;12.90;;;7.80;99.90;;;;;;4919818;29;20063;-80
2023/12/18 02:01:51;;;;;;;27.98;12.85;;;7.80;99.90;;;;;;4887389;29;20039;-80
2023/12/18 02:04:17;;;;;;;26.60;12.70;;;7.90;99.90;;;;;;4902543;29;20040;-78
2023/12/18 02:06:44;;;;;;;25.00;13.45;;;7.90;99.90;;;;;;4902718;29;20036;-77
2023/12/18 02:09:11;;;;;;;26.52;14.02;;;7.80;99.90;;;;;;4919776;29;20028;-80
2023/12/18 02:11:37;;;;;;;25.20;13.85;;;7.80;99.90;;;;;;4902721;29;20086;-79
2023/12/18 02:14:04;;;;;;;28.15;12.65;;;7.80;99.90;;;;;;4887365;29;20111;-79
2023/12/18 02:16:29;;;;;;;25.40;12.93;;;7.80;99.90;;;;;;4919401;29;20028;-80
2023/12/18 02:18:55;;;;;;;27.85;13.70;;;7.90;99.90;;;;;;4919612;29;20490;-81
2023/12/18 02:21:21;;;;;;;23.15;13.20;;;7.90;99.90;;;;;;4903018;29;20127;-79
2023/12/18 02:23:48;;;;;;;23.83;13.30;;;7.90;99.90;;;;;;4919472;29;20033;-79
2023/12/18 02:26:15;;;;;;;22.15;12.88;;;7.90;99.90;;;;;;4919161;29;20044;-78
2023/12/18 02:28:43;;;;;;;22.05;13.60;;;7.90;99.90;;;;;;4902650;29;20119;-78
2023/12/18 02:31:12;;;;;;;26.27;13.95;;;7.90;99.90;;;;;;4919411;29;20051;-78
2023/12/18 02:33:37;;;;;;;25.08;13.05;;;7.90;99.90;;;;;;4918934;29;20115;-78
2023/12/18 02:36:03;;;;;;;19.80;12.70;;;8.00;99.90;;;;;;4919177;29;20052;-78
2023/12/18 02:38:29;;;;;;;22.10;13.10;;;7.90;99.90;;;;;;4902483;29;20533;-78
2023/12/18 02:40:54;;;;;;;22.02;13.88;;;7.90;99.90;;;;;;4918981;29;20036;-78
2023/12/18 02:43:21;;;;;;;23.08;12.73;;;8.00;99.90;;;;;;4897630;29;20056;-79
2023/12/18 02:45:47;;;;;;;22.73;13.13;;;7.90;99.90;;;;;;4898875;29;20108;-79
2023/12/18 02:48:13;;;;;;;23.63;13.20;;;8.00;99.90;;;;;;4899139;29;20052;-79
2023/12/18 02:50:38;;;;;;;28.13;12.90;;;8.00;99.90;;;;;;4900648;29;20033;-78
2023/12/18 02:53:04;;;;;;;27.50;13.18;;;8.00;99.90;;;;;;4900328;29;20037;-79
2023/12/18 02:55:30;;;;;;;31.52;13.63;;;8.00;99.90;;;;;;4899085;29;20040;-79
2023/12/18 02:57:55;;;;;;;28.98;13.40;;;8.00;99.90;;;;;;4898657;29;20092;-80
2023/12/18 03:00:21;;;;;;;25.70;13.93;;;8.00;99.90;;;;;;4898768;29;20056;-81
2023/12/18 03:02:47;;;;;;;21.98;14.13;;;8.00;99.90;;;;;;4898482;29;20108;-79
2023/12/18 03:05:14;;;;;;;26.48;13.60;;;8.00;99.90;;;;;;4899555;29;20049;-78
2023/12/18 03:07:40;;;;;;;27.13;14.50;;;8.00;99.90;;;;;;4900081;29;20041;-79
2023/12/18 03:10:06;;;;;;;24.65;13.98;;;8.00;99.90;;;;;;4900070;29;20033;-78
2023/12/18 03:12:31;;;;;;;26.70;15.05;;;8.00;99.90;;;;;;4898636;29;20119;-78
2023/12/18 03:14:57;;;;;;;26.77;14.02;;;8.00;99.90;;;;;;4898396;29;20482;-77
2023/12/18 03:17:23;;;;;;;24.98;13.57;;;8.00;99.90;;;;;;4898685;29;20036;-78
2023/12/18 03:19:48;;;;;;;26.27;13.07;;;8.00;99.90;;;;;;4882548;29;20089;-77
2023/12/18 03:22:14;;;;;;;24.42;13.38;;;8.00;99.90;;;;;;4899552;29;20029;-78
2023/12/18 03:24:40;;;;;;;22.98;13.43;;;8.00;99.90;;;;;;4899504;29;20161;-78
2023/12/18 03:27:06;;;;;;;24.73;13.95;;;8.00;99.90;;;;;;4899703;29;20035;-78
2023/12/18 03:29:32;;;;;;;24.77;14.38;;;8.10;99.90;;;;;;4898246;29;20127;-77
2023/12/18 03:31:57;;;;;;;26.52;14.40;;;8.00;99.90;;;;;;4883007;29;20035;-78
2023/12/18 03:34:23;;;;;;;30.15;14.50;;;8.00;99.90;;;;;;4898479;29;20048;-78
2023/12/18 03:36:48;;;;;;;26.10;14.00;;;8.00;99.90;;;;;;4898801;29;20447;-78
2023/12/18 03:39:14;;;;;;;25.50;14.82;;;8.00;99.90;;;;;;4867023;29;20064;-77
2023/12/18 03:41:40;;;;;;;28.77;14.05;;;8.00;99.90;;;;;;4899541;29;20036;-78
2023/12/18 03:44:05;;;;;;;30.95;15.00;;;8.10;99.90;;;;;;4885077;29;20062;-78
2023/12/18 03:46:31;;;;;;;31.38;14.98;;;8.10;99.90;;;;;;4901060;29;20118;-78
2023/12/18 03:48:57;;;;;;;23.10;14.38;;;8.10;99.90;;;;;;4917974;29;20561;-78
2023/12/18 03:51:22;;;;;;;32.42;14.88;;;8.10;99.90;;;;;;4901088;29;20068;-78
2023/12/18 03:53:48;;;;;;;23.13;14.20;;;8.10;99.90;;;;;;4900882;29;20040;-77
2023/12/18 03:56:14;;;;;;;25.45;14.50;;;8.20;99.90;;;;;;4900821;29;20506;-78
2023/12/18 03:58:39;;;;;;;27.27;13.80;;;8.10;99.90;;;;;;4917776;29;20372;-78
2023/12/18 04:01:05;;;;;;;26.30;14.63;;;8.20;99.90;;;;;;4870184;29;20484;-78
2023/12/18 04:03:31;;;;;;;28.77;14.77;;;8.20;99.90;;;;;;4884985;29;20056;-78
2023/12/18 04:05:56;;;;;;;28.45;14.73;;;8.20;99.90;;;;;;4917574;29;20484;-78
2023/12/18 04:08:22;;;;;;;22.60;14.15;;;8.10;99.90;;;;;;4884978;29;20059;-78
2023/12/18 04:10:47;;;;;;;26.85;14.65;;;8.20;99.90;;;;;;4900977;29;20043;-79
2023/12/18 04:13:13;;;;;;;31.25;14.80;;;8.20;99.90;;;;;;4900684;29;20032;-79
2023/12/18 04:15:38;;;;;;;27.30;14.73;;;8.20;99.90;;;;;;4917497;29;20044;-79
2023/12/18 04:18:06;;;;;;;26.48;14.55;;;8.20;99.90;;;;;;4900456;29;20032;-79
2023/12/18 04:20:32;;;;;;;25.67;14.80;;;8.20;99.90;;;;;;4900391;29;20147;-79
2023/12/18 04:22:57;;;;;;;30.25;16.00;;;8.20;99.90;;;;;;4869328;29;20123;-78
2023/12/18 04:25:24;;;;;;;29.10;15.30;;;8.20;99.90;;;;;;4900588;29;20111;-78
2023/12/18 04:27:50;;;;;;;23.70;14.63;;;8.20;99.90;;;;;;4900520;29;20028;-78
2023/12/18 04:30:16;;;;;;;26.80;15.05;;;8.20;99.90;;;;;;4917053;29;20039;-78
2023/12/18 04:32:41;;;;;;;23.98;14.73;;;8.20;99.90;;;;;;4884899;29;20381;-78
2023/12/18 04:35:07;;;;;;;28.33;15.10;;;8.20;99.90;;;;;;4917251;29;20406;-78
2023/12/18 04:37:34;;;;;;;26.23;13.82;;;8.30;99.90;;;;;;4869231;29;20389;-78
2023/12/18 04:40:00;;;;;;;24.30;15.10;;;8.20;99.90;;;;;;4900394;29;20105;-79
2023/12/18 04:42:25;;;;;;;29.67;15.35;;;8.20;99.90;;;;;;4917349;29;20024;-78
2023/12/18 04:44:51;;;;;;;29.35;15.18;;;8.20;99.90;;;;;;4917810;29;20359;-78
2023/12/18 04:47:17;;;;;;;26.40;14.52;;;8.20;99.90;;;;;;4900644;29;20143;-79
2023/12/18 04:49:42;;;;;;;31.20;15.27;;;8.20;99.90;;;;;;4884910;29;20485;-79
2023/12/18 04:52:08;;;;;;;25.35;14.20;;;8.20;99.90;;;;;;4916999;29;20063;-78
2023/12/18 04:54:34;;;;;;;30.55;16.40;;;8.10;99.90;;;;;;4900310;29;20044;-78
2023/12/18 04:56:59;;;;;;;26.75;15.65;;;8.10;99.90;;;;;;4900063;29;20024;-79
2023/12/18 04:59:25;;;;;;;29.60;15.98;;;8.10;99.90;;;;;;4899926;29;20079;-78
2023/12/18 05:01:51;;;;;;;30.50;16.05;;;8.10;99.90;;;;;;4899760;29;20084;-78
2023/12/18 05:04:16;;;;;;;32.30;15.25;;;8.10;99.90;;;;;;4916589;29;20040;-78
2023/12/18 05:06:42;;;;;;;30.00;15.35;;;8.10;99.90;;;;;;4869798;29;20047;-78
2023/12/18 05:09:08;;;;;;;28.73;16.02;;;8.10;99.90;;;;;;4920555;29;20040;-78
2023/12/18 05:11:34;;;;;;;26.25;15.13;;;8.10;99.90;;;;;;4920782;29;20123;-79
2023/12/18 05:14:00;;;;;;;32.83;16.00;;;8.10;99.90;;;;;;4888737;29;20493;-79
2023/12/18 05:16:26;;;;;;;29.90;15.45;;;8.10;99.90;;;;;;4920507;29;20106;-79
2023/12/18 05:18:53;;;;;;;34.75;15.90;;;8.10;99.90;;;;;;4872506;29;20036;-79
2023/12/18 05:21:19;;;;;;;29.35;16.13;;;8.10;99.90;;;;;;4920574;29;20060;-79
2023/12/18 05:23:47;;;;;;;32.20;16.25;;;8.10;99.90;;;;;;4903957;29;20118;-79
2023/12/18 05:26:13;;;;;;;24.92;15.82;;;8.10;99.90;;;;;;4904393;29;20130;-79
2023/12/18 05:28:38;;;;;;;27.50;16.10;;;8.10;99.90;;;;;;4920646;29;20055;-79
2023/12/18 05:31:08;;;;;;;32.53;16.55;;;8.10;99.90;;;;;;4903582;29;20047;-79
2023/12/18 05:33:33;;;;;;;26.50;16.10;;;8.10;99.90;;;;;;4903656;29;20032;-79
2023/12/18 05:35:59;;;;;;;33.05;16.63;;;8.10;99.90;;;;;;4903680;29;20044;-80
2023/12/18 05:38:24;;;;;;;29.40;16.10;;;8.10;99.90;;;;;;4903831;29;20095;-79
2023/12/18 05:40:50;;;;;;;30.67;16.88;;;8.10;99.90;;;;;;4903159;29;20028;-79
2023/12/18 05:43:16;;;;;;;30.65;16.92;;;8.10;99.90;;;;;;4902803;29;20378;-79
2023/12/18 05:45:41;;;;;;;27.65;16.50;;;8.10;99.90;;;;;;4903100;29;20401;-79
2023/12/18 05:48:07;;;;;;;29.73;17.15;;;8.10;99.90;;;;;;4919815;29;20024;-79
2023/12/18 05:50:33;;;;;;;40.35;17.98;;;8.10;99.90;;;;;;4871728;29;20036;-78
2023/12/18 05:52:59;;;;;;;30.77;16.35;;;8.20;99.90;;;;;;4887597;29;20039;-78
2023/12/18 05:55:24;;;;;;;31.38;18.02;;;8.20;99.90;;;;;;4887279;29;20115;-79
2023/12/18 05:57:50;;;;;;;27.45;16.60;;;8.10;99.90;;;;;;4903076;29;20032;-79
2023/12/18 06:00:18;;;;;;;31.65;18.30;;;8.10;99.90;;;;;;4920005;29;20465;-79
2023/12/18 06:02:44;;;;;;;33.10;18.35;;;8.10;99.90;;;;;;4872407;29;20385;-79
2023/12/18 06:05:10;;;;;;;32.33;18.33;;;8.10;99.90;;;;;;4902760;29;20473;-80
2023/12/18 06:07:35;;;;;;;32.25;18.02;;;8.10;99.90;;;;;;4919821;29;20032;-80
2023/12/18 06:10:03;;;;;;;33.03;18.95;;;8.10;99.90;;;;;;4919811;29;20036;-79
2023/12/18 06:12:29;;;;;;;30.60;18.50;;;8.10;99.90;;;;;;4920020;29;20377;-79
2023/12/18 06:14:54;;;;;;;29.73;18.10;;;8.10;99.90;;;;;;4902496;29;20039;-78
2023/12/18 06:17:20;;;;;;;31.73;18.95;;;8.10;99.90;;;;;;4902797;29;20037;-79
2023/12/18 06:19:47;;;;;;;32.45;18.63;;;8.10;99.90;;;;;;4903214;29;20036;-79
2023/12/18 06:22:13;;;;;;;30.13;17.83;;;8.10;99.90;;;;;;4919345;29;20048;-78
2023/12/18 06:24:39;;;;;;;34.42;19.60;;;8.10;99.90;;;;;;4919044;29;20397;-79
2023/12/18 06:27:05;;;;;;;31.85;20.08;;;8.20;99.90;;;;;;4919115;29;20454;-79
2023/12/18 06:29:30;;;;;;;32.25;19.65;;;8.10;99.90;;;;;;4919274;29;20028;-79
2023/12/18 06:31:56;;;;;;;30.85;18.52;;;8.10;99.90;;;;;;4902305;29;20040;-79
2023/12/18 06:34:21;;;;;;;31.92;19.98;;;8.10;99.90;;;;;;4902190;29;20528;-79
2023/12/18 06:36:47;;;;;;;35.47;20.58;;;8.10;99.90;;;;;;4902863;29;20024;-78
2023/12/18 06:39:13;;;;;;;37.67;20.10;;;8.10;99.90;;;;;;4902737;29;20184;-77
2023/12/18 06:41:39;;;;;;;36.70;19.10;;;8.10;99.90;;;;;;4919046;29;20040;-78
2023/12/18 06:44:05;;;;;;;36.83;19.95;;;8.10;99.90;;;;;;4902541;29;20478;-79
2023/12/18 06:46:32;;;;;;;35.92;20.90;;;8.10;99.90;;;;;;4919462;29;20099;-78
2023/12/18 06:48:58;;;;;;;37.35;19.73;;;8.10;99.90;;;;;;4901856;29;20095;-78
2023/12/18 06:51:24;;;;;;;32.00;19.60;;;8.10;99.90;;;;;;4919151;29;20160;-78
2023/12/18 06:53:50;;;;;;;38.42;18.98;;;8.10;99.90;;;;;;4918689;29;20119;-78
2023/12/18 06:56:16;;;;;;;31.30;18.60;;;8.10;99.90;;;;;;4886660;29;20051;-78
2023/12/18 06:58:41;;;;;;;41.15;19.15;;;8.10;99.90;;;;;;4902193;29;20107;-78
2023/12/18 07:01:07;;;;;;;33.72;18.55;;;8.10;99.90;;;;;;4918873;29;20421;-78
2023/12/18 07:03:33;;;;;;;34.25;19.60;;;8.10;99.90;;;;;;4886376;29;20487;-78
2023/12/18 07:05:59;;;;;;;34.63;20.45;;;8.10;99.90;;;;;;4918790;29;20469;-78
2023/12/18 07:08:24;;;;;;;31.20;19.05;;;8.10;99.90;;;;;;4901929;29;20036;-79
2023/12/18 07:10:50;;;;;;;33.30;19.38;;;8.10;99.90;;;;;;4901494;29;20370;-78
2023/12/18 07:13:16;;;;;;;37.45;20.20;;;8.10;99.90;;;;;;4886394;29;20044;-79
2023/12/18 07:15:42;;;;;;;36.55;19.85;;;8.10;99.90;;;;;;4918616;29;20497;-79
2023/12/18 07:18:07;;;;;;;30.58;18.40;;;8.10;99.90;;;;;;4918297;29;20024;-80
2023/12/18 07:20:33;;;;;;;34.90;18.90;;;8.10;99.90;;;;;;4870726;29;20032;-75
2023/12/18 07:22:59;;;;;;;33.05;18.83;;;8.00;99.90;;;;;;4901546;29;20118;-78
2023/12/18 07:25:25;;;;;;;32.88;18.42;;;8.10;99.90;;;;;;4901723;29;20366;-79
2023/12/18 07:27:51;;;;;;;40.20;20.17;;;8.20;99.90;;;;;;4901591;29;20524;-78
2023/12/18 07:30:17;;;;;;;31.65;19.02;;;8.20;99.90;;;;;;4900930;29;20051;-80
2023/12/18 07:32:43;;;;;;;33.38;19.85;;;8.20;99.90;;;;;;4901464;29;20461;-82
2023/12/18 07:35:09;;;;;;;32.20;19.40;;;8.20;99.90;;;;;;4901248;29;20036;-82
2023/12/18 07:37:34;;;;;;;28.40;19.15;;;8.30;99.90;;;;;;4901193;29;20040;-81
2023/12/18 07:40:01;;;;;;;36.42;19.63;;;8.30;99.90;;;;;;4885777;29;20075;-81
2023/12/18 07:42:27;;;;;;;34.92;19.40;;;8.30;99.90;;;;;;4885784;29;20036;-81
2023/12/18 07:44:53;;;;;;;29.65;18.77;;;8.30;99.90;;;;;;4869720;29;20493;-77
2023/12/18 07:47:18;;;;;;;37.15;19.83;;;8.20;99.90;;;;;;4885706;29;20062;-77
2023/12/18 07:49:44;;;;;;;30.25;17.77;;;8.30;99.90;;;;;;4885255;29;20131;-76
2023/12/18 07:52:10;;;;;;;31.70;19.95;;;8.30;99.90;;;;;;4885006;29;20032;-79
2023/12/18 07:54:36;;;;;;;33.22;18.48;;;8.30;99.90;;;;;;4885230;29;20040;-78
2023/12/18 07:57:04;;;;;;;33.15;19.20;;;8.30;99.90;;;;;;4917601;29;20461;-77
2023/12/18 07:59:30;;;;;;;33.50;18.55;;;8.30;99.90;;;;;;4900373;29;20032;-80
2023/12/18 08:01:56;;;;;;;30.77;18.65;;;8.30;99.90;;;;;;4900680;29;20445;-81
2023/12/18 08:04:22;;;;;;;36.25;19.17;;;8.30;99.90;;;;;;4900002;29;20463;-81
2023/12/18 08:06:51;;;;;;;32.95;19.88;;;8.30;99.90;;;;;;4916922;29;20111;-79
2023/12/18 08:09:16;;;;;;;27.25;17.35;;;8.30;99.90;;;;;;4900250;29;20039;-78
2023/12/18 08:11:42;;;;;;;31.05;17.77;;;8.30;99.90;;;;;;4900499;29;20032;-78
2023/12/18 08:14:09;;;;;;;30.60;17.67;;;8.40;99.90;;;;;;4900796;29;20032;-78
2023/12/18 08:16:35;;;;;;;25.15;17.27;;;8.40;99.90;;;;;;4900430;29;20047;-78
2023/12/18 08:19:00;;;;;;;38.22;20.05;;;8.40;99.90;;;;;;4884607;29;20028;-78
2023/12/18 08:21:26;;;;;;;31.95;17.83;;;8.40;99.90;;;;;;4917426;29;20361;-79
2023/12/18 08:23:52;;;;;;;30.65;18.35;;;8.50;99.90;;;;;;4900202;29;20039;-77
2023/12/18 08:26:18;;;;;;;35.58;17.90;;;8.40;99.90;;;;;;4885029;29;20036;-79
2023/12/18 08:28:45;;;;;;;33.08;17.13;;;8.50;99.90;;;;;;4900212;29;20032;-78
2023/12/18 08:31:11;;;;;;;32.88;18.65;;;8.50;99.90;;;;;;4900155;29;20050;-78
2023/12/18 08:33:38;;;;;;;34.70;18.75;;;8.50;99.90;;;;;;4884546;29;20060;-78
2023/12/18 08:36:04;;;;;;;29.48;17.40;;;8.50;99.90;;;;;;4917347;29;20042;-78
2023/12/18 08:38:30;;;;;;;36.05;18.15;;;8.40;99.90;;;;;;4900203;29;20044;-79
2023/12/18 08:40:56;;;;;;;39.83;18.20;;;8.40;99.90;;;;;;4884378;29;20032;-76
2023/12/18 08:43:22;;;;;;;30.00;17.33;;;8.50;99.90;;;;;;4899576;29;20064;-79
2023/12/18 08:45:47;;;;;;;33.40;17.85;;;8.50;99.90;;;;;;4884840;29;20040;-79
2023/12/18 08:48:13;;;;;;;33.58;18.17;;;8.50;99.90;;;;;;4899990;29;20032;-79
2023/12/18 08:50:39;;;;;;;38.45;18.98;;;8.60;99.90;;;;;;4869592;29;20040;-79
2023/12/18 08:53:05;;;;;;;27.30;17.25;;;8.60;99.90;;;;;;4884367;29;20056;-79
2023/12/18 08:55:31;;;;;;;29.30;16.52;;;8.60;99.90;;;;;;4884817;29;20036;-80
2023/12/18 08:57:56;;;;;;;32.92;18.17;;;8.70;99.90;;;;;;4900034;29;20457;-79
2023/12/18 09:00:22;;;;;;;30.50;17.45;;;8.70;99.90;;;;;;4884259;29;20087;-79
2023/12/18 09:02:48;;;;;;;31.52;17.52;;;8.70;99.90;;;;;;4868911;29;20068;-79
2023/12/18 09:05:14;;;;;;;28.75;17.13;;;8.70;99.90;;;;;;4900201;29;20040;-79
2023/12/18 09:07:39;;;;;;;33.17;16.98;;;8.70;99.90;;;;;;4917108;29;20036;-80
2023/12/18 09:10:06;;;;;;;28.92;16.60;;;8.70;99.90;;;;;;4899727;29;20481;-79
2023/12/18 09:12:31;;;;;;;35.00;17.70;;;8.70;99.90;;;;;;4900295;29;20381;-79
2023/12/18 09:14:57;;;;;;;31.90;17.88;;;8.70;99.90;;;;;;4869494;29;20039;-81
2023/12/18 09:17:23;;;;;;;33.28;17.50;;;8.70;99.90;;;;;;4916626;29;20388;-80
2023/12/18 09:19:48;;;;;;;32.10;17.30;;;8.70;99.90;;;;;;4916463;29;20028;-80
2023/12/18 09:22:14;;;;;;;33.10;17.17;;;8.70;99.90;;;;;;4884531;29;20414;-83
2023/12/18 09:24:40;;;;;;;30.42;17.02;;;8.70;99.90;;;;;;4883965;29;20092;-82
2023/12/18 09:27:05;;;;;;;30.13;16.63;;;8.70;99.90;;;;;;4884652;29;20033;-81
2023/12/18 09:29:31;;;;;;;30.17;16.42;;;8.70;99.90;;;;;;4884360;29;20047;-79
2023/12/18 09:31:57;;;;;;;32.85;17.13;;;8.70;99.90;;;;;;4868416;29;20381;-80
2023/12/18 09:34:23;;;;;;;29.15;17.17;;;8.70;99.90;;;;;;4883789;29;20540;-79
2023/12/18 09:36:49;;;;;;;31.70;17.60;;;8.80;99.90;;;;;;4884632;29;20040;-79
2023/12/18 09:39:14;;;;;;;30.58;17.50;;;8.90;99.90;;;;;;4899601;29;20055;-80
2023/12/18 09:41:40;;;;;;;33.20;17.30;;;8.80;99.90;;;;;;4899458;29;20032;-80
2023/12/18 09:44:09;;;;;;;31.70;19.27;;;8.90;99.90;;;;;;4883601;29;20188;-80
2023/12/18 09:46:35;;;;;;;37.55;18.05;;;8.80;99.90;;;;;;4916219;29;20067;-78
2023/12/18 09:49:00;;;;;;;29.42;17.13;;;8.80;99.90;;;;;;4868218;29;20036;-80
2023/12/18 09:51:26;;;;;;;31.13;18.50;;;8.80;99.90;;;;;;4899486;29;20028;-80
2023/12/18 09:53:53;;;;;;;32.38;17.85;;;8.80;99.90;;;;;;4886272;29;20536;-79
2023/12/18 09:56:23;;;;;;;32.55;17.55;;;8.80;99.90;;;;;;4902884;29;20067;-79
2023/12/18 09:58:52;;;;;;;36.30;17.80;;;8.90;99.90;;;;;;4887561;29;20040;-80
2023/12/18 10:01:17;;;;;;;30.08;18.83;;;8.90;99.90;;;;;;4919890;29;20032;-80
2023/12/18 10:03:43;;;;;;;28.40;16.88;;;8.90;99.90;;;;;;4919750;29;20047;-78
2023/12/18 10:06:09;;;;;;;33.55;18.63;;;8.90;99.90;;;;;;4902368;29;20051;-78
2023/12/18 10:08:36;;;;;;;40.33;18.33;;;8.90;99.90;;;;;;4887805;29;20028;-77
2023/12/18 10:11:03;;;;;;;37.63;18.20;;;8.90;99.90;;;;;;4920290;29;20127;-77
2023/12/18 10:13:29;;;;;;;35.22;17.60;;;8.90;99.90;;;;;;4919472;29;20465;-76
2023/12/18 10:15:54;;;;;;;32.17;18.60;;;8.90;99.90;;;;;;4919344;29;20087;-76
2023/12/18 10:18:23;;;;;;;34.42;18.10;;;8.90;99.90;;;;;;4887821;29;20100;-77
2023/12/18 10:20:50;;;;;;;29.50;17.50;;;8.90;99.90;;;;;;4919612;29;20032;-77
2023/12/18 10:23:17;;;;;;;32.22;17.70;;;8.90;99.90;;;;;;4902414;29;20040;-77
2023/12/18 10:25:43;;;;;;;38.47;19.23;;;8.90;99.90;;;;;;4919228;29;20520;-77
2023/12/18 10:28:09;;;;;;;32.42;19.02;;;9.00;99.90;;;;;;4902252;29;20081;-77
2023/12/18 10:30:35;;;;;;;31.83;17.63;;;9.00;99.90;;;;;;4919010;29;20105;-77
2023/12/18 10:33:05;;;;;;;28.00;17.27;;;9.00;99.90;;;;;;4919787;29;20082;-77
2023/12/18 10:35:34;;;;;;;30.05;16.48;;;8.90;99.90;;;;;;4919940;29;20040;-77
2023/12/18 10:38:01;;;;;;;29.35;16.60;;;8.90;99.90;;;;;;4902151;29;20064;-77
2023/12/18 10:40:28;;;;;;;29.45;16.98;;;9.00;99.90;;;;;;4902917;29;20036;-77
2023/12/18 10:43:02;;;;;;;31.20;17.65;;;9.00;99.90;;;;;;4887338;29;20033;-77
2023/12/18 10:45:29;;;;;;;28.30;16.67;;;9.00;99.90;;;;;;4901755;29;20187;-78
2023/12/18 10:47:58;;;;;;;31.77;17.90;;;9.00;99.90;;;;;;4919370;29;20039;-77
2023/12/18 10:50:28;;;;;;;31.02;17.52;;;9.00;99.90;;;;;;4919322;29;20107;-77
2023/12/18 10:52:56;;;;;;;31.05;17.75;;;9.00;99.90;;;;;;4918956;29;20031;-77
2023/12/18 10:55:23;;;;;;;37.13;19.55;;;9.00;99.90;;;;;;4918634;29;20036;-77
2023/12/18 10:57:50;;;;;;;33.72;18.42;;;9.00;99.90;;;;;;4918952;29;20115;-77
2023/12/18 11:00:17;;;;;;;28.85;17.10;;;8.90;99.90;;;;;;4902011;29;20393;-77
2023/12/18 11:02:44;;;;;;;34.25;18.65;;;9.00;99.90;;;;;;4902117;29;20032;-77
2023/12/18 11:05:12;;;;;;;29.42;17.85;;;8.90;99.90;;;;;;4917807;29;20032;-77
2023/12/18 11:07:39;;;;;;;37.63;18.23;;;8.90;99.90;;;;;;4918698;29;20426;-77
2023/12/18 11:10:06;;;;;;;29.35;17.83;;;9.00;99.90;;;;;;4918767;29;20024;-78
2023/12/18 11:12:34;;;;;;;28.38;17.45;;;9.00;99.90;;;;;;4918567;29;20032;-77
2023/12/18 11:15:21;;;;;;;29.02;17.80;;;9.00;99.90;;;;;;4918663;29;20040;-77
2023/12/18 11:18:07;;;;;;;33.30;17.55;;;9.10;99.90;;;;;;4902999;29;20040;-78
2023/12/18 11:20:39;;;;;;;35.35;18.23;;;9.10;99.90;;;;;;4918391;29;20044;-79
2023/12/18 11:23:05;;;;;;;32.60;18.03;;;9.10;99.90;;;;;;4901701;29;20032;-78
2023/12/18 11:25:39;;;;;;;32.80;17.77;;;9.10;99.90;;;;;;4901787;29;20553;-79
2023/12/18 11:28:06;;;;;;;36.45;19.15;;;9.10;99.90;;;;;;4918692;29;20034;-78
2023/12/18 11:30:33;;;;;;;29.58;18.38;;;9.10;99.90;;;;;;4918273;29;20064;-79
2023/12/18 11:33:04;;;;;;;28.67;17.85;;;9.10;99.90;;;;;;4901626;29;20354;-79
2023/12/18 11:35:35;;;;;;;34.65;16.88;;;9.10;99.90;;;;;;4918420;29;20047;-79
2023/12/18 11:38:11;;;;;;;27.67;16.95;;;9.10;99.90;;;;;;4901302;29;20032;-79
2023/12/18 11:40:44;;;;;;;34.08;18.58;;;9.10;99.90;;;;;;4919371;29;20028;-79
2023/12/18 11:43:31;;;;;;;31.63;17.80;;;9.10;99.90;;;;;;4885333;29;20091;-79
2023/12/18 11:45:59;;;;;;;32.00;17.85;;;9.10;99.90;;;;;;4900516;29;20048;-79
2023/12/18 11:48:25;;;;;;;35.45;19.45;;;9.10;99.90;;;;;;4885138;29;20039;-79
2023/12/18 11:50:51;;;;;;;31.45;18.45;;;9.00;99.90;;;;;;4901028;29;20033;-79
2023/12/18 11:53:40;;;;;;;31.00;18.35;;;9.00;99.90;;;;;;4917710;29;20035;-79
2023/12/18 11:56:09;;;;;;;33.85;17.10;;;9.00;99.90;;;;;;4918014;29;20036;-79
2023/12/18 11:58:37;;;;;;;30.13;16.98;;;9.00;99.90;;;;;;4901319;29;20040;-78
2023/12/18 12:01:03;;;;;;;31.38;18.13;;;9.10;99.90;;;;;;4900946;29;20028;-78
2023/12/18 12:03:31;;;;;;;29.77;17.83;;;9.20;99.90;;;;;;4900789;29;20039;-78
2023/12/18 12:05:58;;;;;;;34.58;17.25;;;9.20;99.90;;;;;;4917191;29;20122;-78
2023/12/18 12:08:24;;;;;;;29.10;17.23;;;9.20;99.90;;;;;;4900697;29;20061;-78
2023/12/18 12:10:50;;;;;;;31.05;18.17;;;9.20;99.90;;;;;;4885419;29;20064;-78
2023/12/18 12:13:18;;;;;;;31.95;18.52;;;9.30;99.90;;;;;;4900361;29;20028;-78
2023/12/18 12:15:54;;;;;;;28.27;16.65;;;9.30;99.90;;;;;;4900802;29;20171;-78
2023/12/18 12:18:20;;;;;;;34.92;17.63;;;9.20;99.90;;;;;;4917695;29;20025;-78
2023/12/18 12:20:45;;;;;;;27.23;16.63;;;9.30;99.90;;;;;;4900376;29;20381;-77
2023/12/18 12:23:11;;;;;;;31.83;17.95;;;9.30;99.90;;;;;;4900139;29;20072;-77
2023/12/18 12:25:38;;;;;;;29.67;17.65;;;9.40;99.90;;;;;;4917234;29;20478;-78
2023/12/18 12:28:04;;;;;;;31.02;17.25;;;9.30;99.90;;;;;;4900248;29;20032;-78
2023/12/18 12:30:30;;;;;;;34.63;18.17;;;9.30;99.90;;;;;;4884497;29;20032;-78